Addison Township, Michigan
Current Conditions -  °F | °C
As of 9:54 PM on Sunday 23 Nov 2014 (Local Time) from KD95 Reporting Station
Moderate Rain Moderate Rain  
Wind Chill: 44°   Ceiling: 8000
Heat Index: 48°   Visibility: 7mi
Dew Point: 46°   Wind: 8mph
Humidity: 92%   Direction: 130°SE
Pressure: 29.41"   Gusts: NA
Location:  42.8434°N, 83.1398°W
Report Text: KD95 240254Z AUTO 13007KT 7SM RA SCT046 BKN080 OVC090 09/08 A2941 RMK AO2 P0007 T00880075
Loading
Personal Weather Stations






























Interactive Weather Map New forecast layout! Learn more

10-Day Weather Forecast

Advertisements
Track Severe Weather on mobile